Time;durP1;ratioP1;P1;durP2;ratioP2;P2;SDS_P1;SDS_P2;PMS_P1;PMS_P2;Temp;Humidity;BMP_temperature;BMP_pressure;BME280_temperature;BME280_humidity;BME280_pressure;Samples;Min_cycle;Max_cycle;Signal;HPM_P1;HPM_P2
2022/07/27 00:01:04;;;;;;;5.57;2.35;;;;;;;;;;5093630;28;20051;-75
2022/07/27 00:03:30;;;;;;;6.25;2.28;;;;;;;;;;5092211;28;20048;-75
2022/07/27 00:05:56;;;;;;;6.93;2.40;;;;;;;;;;5090564;28;20087;-75
2022/07/27 00:08:22;;;;;;;6.20;2.25;;;;;;;;;;5075324;28;20434;-75
2022/07/27 00:10:49;;;;;;;5.07;2.70;;;;;;;;;;5059259;28;20131;-75
2022/07/27 00:13:15;;;;;;;8.43;2.55;;;;;;;;;;5095490;28;20040;-75
2022/07/27 00:15:41;;;;;;;5.43;2.17;;;;;;;;;;5077233;28;20048;-75
2022/07/27 00:18:07;;;;;;;7.13;2.33;;;;;;;;;;5075615;28;20070;-75
2022/07/27 00:20:34;;;;;;;7.82;2.15;;;;;;;;;;5076949;28;20098;-75
2022/07/27 00:23:00;;;;;;;6.45;2.10;;;;;;;;;;5077642;28;20105;-75
2022/07/27 00:25:26;;;;;;;5.32;2.25;;;;;;;;;;5076859;28;20445;-75
2022/07/27 00:27:53;;;;;;;5.82;2.03;;;;;;;;;;5077082;28;20089;-75
2022/07/27 00:30:19;;;;;;;4.20;2.20;;;;;;;;;;5088613;28;20541;-75
2022/07/27 00:32:45;;;;;;;5.13;2.20;;;;;;;;;;5092977;28;20200;-75
2022/07/27 00:35:11;;;;;;;5.15;2.10;;;;;;;;;;5076395;28;20044;-74
2022/07/27 00:37:37;;;;;;;4.85;2.00;;;;;;;;;;5092515;28;20076;-74
2022/07/27 00:40:04;;;;;;;5.75;2.17;;;;;;;;;;5077988;28;20078;-75
2022/07/27 00:42:30;;;;;;;4.90;2.05;;;;;;;;;;5092798;28;20040;-75
2022/07/27 00:47:26;;;;;;;6.72;2.47;;;;;;;;;;5060058;28;20140;-74
2022/07/27 00:49:52;;;;;;;4.72;2.30;;;;;;;;;;5042562;28;20120;-73
2022/07/27 00:52:18;;;;;;;6.07;2.45;;;;;;;;;;5042041;28;20048;-73
2022/07/27 00:54:46;;;;;;;7.05;2.30;;;;;;;;;;5042364;28;20497;-74
2022/07/27 00:57:13;;;;;;;7.57;2.58;;;;;;;;;;5042775;28;20050;-73
2022/07/27 00:59:39;;;;;;;5.55;2.30;;;;;;;;;;5043355;28;20433;-73
2022/07/27 01:02:06;;;;;;;6.53;2.30;;;;;;;;;;5061799;28;20757;-73
2022/07/27 01:04:32;;;;;;;7.07;2.20;;;;;;;;;;5027700;28;20043;-73
2022/07/27 01:06:59;;;;;;;5.85;2.00;;;;;;;;;;5057420;28;20045;-73
2022/07/27 01:12:13;;;;;;;6.45;2.20;;;;;;;;;;5041705;28;20442;-73
2022/07/27 01:14:39;;;;;;;6.25;2.30;;;;;;;;;;5048643;28;20088;-73
2022/07/27 01:17:05;;;;;;;6.50;2.30;;;;;;;;;;5056242;28;20052;-73
2022/07/27 01:19:33;;;;;;;5.45;2.35;;;;;;;;;;5041451;28;20044;-73
2022/07/27 01:21:59;;;;;;;4.80;2.28;;;;;;;;;;5041862;28;20378;-73
2022/07/27 01:24:25;;;;;;;6.35;2.40;;;;;;;;;;5041660;28;20091;-73
2022/07/27 01:26:51;;;;;;;6.32;2.20;;;;;;;;;;5023695;28;20075;-73
2022/07/27 01:29:17;;;;;;;6.32;2.35;;;;;;;;;;5049652;28;20057;-73
2022/07/27 01:31:43;;;;;;;5.97;2.20;;;;;;;;;;5053053;28;20045;-73
2022/07/27 01:34:09;;;;;;;6.80;2.72;;;;;;;;;;5042597;28;20045;-73
2022/07/27 01:36:35;;;;;;;6.03;2.50;;;;;;;;;;5029328;28;20056;-73
2022/07/27 01:39:01;;;;;;;8.23;2.70;;;;;;;;;;5042951;28;20539;-73
2022/07/27 01:41:27;;;;;;;8.30;2.50;;;;;;;;;;5060494;28;20415;-73
2022/07/27 01:43:53;;;;;;;7.03;2.55;;;;;;;;;;5057045;28;20051;-73
2022/07/27 01:46:19;;;;;;;6.35;2.40;;;;;;;;;;5050344;28;20079;-73
2022/07/27 01:48:45;;;;;;;9.93;2.90;;;;;;;;;;5060970;28;20071;-73
2022/07/27 01:51:11;;;;;;;7.50;2.70;;;;;;;;;;5058270;28;20089;-73
2022/07/27 01:53:37;;;;;;;4.43;2.30;;;;;;;;;;5051771;28;20044;-74
2022/07/27 01:56:03;;;;;;;6.28;2.72;;;;;;;;;;5022696;28;20053;-73
2022/07/27 01:58:29;;;;;;;6.80;2.60;;;;;;;;;;5049120;28;20487;-73
2022/07/27 02:00:55;;;;;;;7.47;2.55;;;;;;;;;;5060925;28;20041;-73
2022/07/27 02:03:21;;;;;;;6.28;2.17;;;;;;;;;;5060763;28;20051;-73
2022/07/27 02:05:47;;;;;;;6.75;2.30;;;;;;;;;;5061620;28;20048;-73
2022/07/27 02:08:14;;;;;;;6.65;2.80;;;;;;;;;;5059845;28;20041;-74
2022/07/27 02:12:34;;;;;;;8.15;3.10;;;;;;;;;;5056170;28;20045;-74
2022/07/27 02:13:27;;;;;;;6.32;2.45;;;;;;;;;;5055219;28;20041;-74
2022/07/27 02:15:53;;;;;;;8.45;2.97;;;;;;;;;;5021074;28;20049;-74
2022/07/27 02:18:19;;;;;;;8.00;2.40;;;;;;;;;;5054995;28;20147;-74
2022/07/27 02:20:45;;;;;;;12.63;3.03;;;;;;;;;;5029027;28;20045;-74
2022/07/27 02:23:11;;;;;;;7.85;2.97;;;;;;;;;;5037099;28;20393;-74
2022/07/27 02:25:37;;;;;;;5.75;2.70;;;;;;;;;;5055514;28;20099;-75
2022/07/27 02:28:03;;;;;;;9.15;3.10;;;;;;;;;;5054915;28;20048;-75
2022/07/27 02:30:29;;;;;;;7.10;2.70;;;;;;;;;;5039364;28;20063;-74
2022/07/27 02:32:55;;;;;;;8.50;2.78;;;;;;;;;;5035170;28;20100;-74
2022/07/27 02:35:22;;;;;;;8.07;3.08;;;;;;;;;;5044427;28;20083;-74
2022/07/27 02:37:48;;;;;;;6.95;2.80;;;;;;;;;;5055387;28;20605;-74
2022/07/27 02:40:16;;;;;;;7.65;3.20;;;;;;;;;;5054621;28;20124;-74
2022/07/27 02:42:42;;;;;;;6.70;2.60;;;;;;;;;;5055090;28;20492;-74
2022/07/27 02:45:08;;;;;;;6.82;2.65;;;;;;;;;;5055041;28;20111;-74
2022/07/27 02:47:34;;;;;;;7.45;3.00;;;;;;;;;;5054585;28;20076;-74
2022/07/27 02:50:01;;;;;;;6.68;2.75;;;;;;;;;;5052361;28;20484;-74
2022/07/27 02:52:27;;;;;;;7.50;3.13;;;;;;;;;;5054012;28;20110;-74
2022/07/27 02:54:53;;;;;;;9.77;3.28;;;;;;;;;;5054936;28;20051;-74
2022/07/27 02:57:19;;;;;;;6.82;2.70;;;;;;;;;;5054968;28;20045;-74
2022/07/27 02:59:45;;;;;;;6.03;3.00;;;;;;;;;;5036447;28;20041;-74
2022/07/27 03:02:11;;;;;;;6.47;2.92;;;;;;;;;;5037558;28;20412;-74
2022/07/27 03:04:37;;;;;;;7.15;3.13;;;;;;;;;;5053923;28;20463;-74
2022/07/27 03:07:03;;;;;;;6.97;2.72;;;;;;;;;;5054365;28;20045;-74
2022/07/27 03:09:29;;;;;;;7.45;2.70;;;;;;;;;;5053353;28;20041;-74
2022/07/27 03:11:55;;;;;;;8.18;2.90;;;;;;;;;;5055414;28;20044;-74
2022/07/27 03:14:21;;;;;;;5.93;2.80;;;;;;;;;;5054907;28;20045;-74
2022/07/27 03:16:47;;;;;;;6.82;2.85;;;;;;;;;;5054798;28;20106;-75
2022/07/27 03:19:13;;;;;;;9.93;2.95;;;;;;;;;;5053249;28;20048;-74
2022/07/27 03:21:39;;;;;;;7.95;2.70;;;;;;;;;;5048124;28;20041;-74
2022/07/27 03:24:06;;;;;;;4.97;2.72;;;;;;;;;;5054603;28;20458;-73
2022/07/27 03:26:32;;;;;;;7.15;2.95;;;;;;;;;;5054548;28;20135;-74
2022/07/27 03:28:58;;;;;;;5.88;2.70;;;;;;;;;;5054430;28;20484;-74
2022/07/27 03:31:24;;;;;;;7.63;2.70;;;;;;;;;;5037191;28;20041;-74
2022/07/27 03:33:50;;;;;;;8.93;2.92;;;;;;;;;;5043204;28;20082;-75
2022/07/27 03:36:16;;;;;;;8.05;2.85;;;;;;;;;;5036458;28;20198;-73
2022/07/27 03:38:42;;;;;;;6.82;2.90;;;;;;;;;;5054835;28;20118;-73
2022/07/27 03:41:08;;;;;;;6.47;2.95;;;;;;;;;;5053351;28;20067;-74
2022/07/27 03:43:35;;;;;;;6.47;2.97;;;;;;;;;;5052620;28;20377;-73
2022/07/27 03:46:01;;;;;;;4.32;2.50;;;;;;;;;;5052301;28;20111;-74
2022/07/27 03:48:27;;;;;;;7.72;2.85;;;;;;;;;;5051555;28;20053;-74
2022/07/27 03:50:53;;;;;;;9.43;3.40;;;;;;;;;;5051671;28;20053;-73
2022/07/27 03:53:20;;;;;;;10.77;3.55;;;;;;;;;;5034992;28;20049;-73
2022/07/27 03:55:49;;;;;;;6.45;3.50;;;;;;;;;;5052426;28;20049;-74
2022/07/27 03:58:15;;;;;;;8.20;3.45;;;;;;;;;;5052590;28;20045;-74
2022/07/27 04:00:42;;;;;;;11.48;3.58;;;;;;;;;;5036276;28;20053;-74
2022/07/27 04:03:08;;;;;;;8.70;3.38;;;;;;;;;;5046534;28;20037;-74
2022/07/27 04:05:34;;;;;;;8.93;3.70;;;;;;;;;;5052541;28;20083;-74
2022/07/27 04:08:03;;;;;;;8.23;4.05;;;;;;;;;;5056036;28;20080;-74
2022/07/27 04:10:29;;;;;;;9.75;4.60;;;;;;;;;;5057162;28;20052;-74
2022/07/27 04:12:55;;;;;;;9.32;3.80;;;;;;;;;;5051892;28;20029;-74
2022/07/27 04:15:21;;;;;;;8.90;3.40;;;;;;;;;;5036946;28;20041;-74
2022/07/27 04:17:47;;;;;;;9.35;3.25;;;;;;;;;;5043418;28;20077;-74
2022/07/27 04:20:13;;;;;;;9.00;3.03;;;;;;;;;;5047518;28;20044;-74
2022/07/27 04:22:39;;;;;;;7.68;3.03;;;;;;;;;;5039015;28;20041;-74
2022/07/27 04:25:06;;;;;;;6.22;2.88;;;;;;;;;;5056679;28;20080;-75
2022/07/27 04:27:32;;;;;;;8.02;3.20;;;;;;;;;;5055480;28;20047;-74
2022/07/27 04:29:58;;;;;;;9.38;3.10;;;;;;;;;;5055696;28;20118;-74
2022/07/27 04:32:24;;;;;;;9.25;3.10;;;;;;;;;;5055346;28;20037;-74
2022/07/27 04:34:50;;;;;;;7.60;2.58;;;;;;;;;;5046071;28;20045;-74
2022/07/27 04:37:16;;;;;;;10.27;2.65;;;;;;;;;;5053058;28;20110;-74
2022/07/27 04:39:42;;;;;;;5.32;2.55;;;;;;;;;;5053459;28;20045;-74
2022/07/27 04:42:08;;;;;;;7.80;3.10;;;;;;;;;;5054879;28;20098;-74
2022/07/27 04:44:34;;;;;;;6.10;2.45;;;;;;;;;;5056252;28;20520;-74
2022/07/27 04:47:00;;;;;;;6.28;2.10;;;;;;;;;;5054177;28;20053;-74
2022/07/27 04:49:26;;;;;;;4.88;2.50;;;;;;;;;;5055477;28;20041;-75
2022/07/27 04:51:52;;;;;;;5.80;2.50;;;;;;;;;;5056188;28;20053;-74
2022/07/27 04:54:18;;;;;;;6.78;2.35;;;;;;;;;;5056588;28;20075;-74
2022/07/27 04:56:44;;;;;;;8.68;2.30;;;;;;;;;;5056576;28;20037;-74
2022/07/27 04:59:11;;;;;;;7.05;2.80;;;;;;;;;;5054376;28;20485;-74
2022/07/27 05:01:37;;;;;;;4.80;2.20;;;;;;;;;;5050215;28;20056;-74
2022/07/27 05:04:06;;;;;;;6.35;2.30;;;;;;;;;;5027630;28;20064;-74
2022/07/27 05:06:32;;;;;;;6.10;2.30;;;;;;;;;;5055817;28;20500;-75
2022/07/27 05:08:58;;;;;;;6.07;2.38;;;;;;;;;;5056053;28;20045;-74
2022/07/27 05:11:24;;;;;;;6.82;2.42;;;;;;;;;;5055919;28;20464;-74
2022/07/27 05:13:50;;;;;;;4.95;2.47;;;;;;;;;;5055827;28;20071;-74
2022/07/27 05:16:16;;;;;;;5.60;2.10;;;;;;;;;;5055316;28;20037;-75
2022/07/27 05:18:44;;;;;;;3.88;2.15;;;;;;;;;;5054662;28;20037;-75
2022/07/27 05:21:10;;;;;;;8.88;2.33;;;;;;;;;;5055348;28;20052;-75
2022/07/27 05:23:36;;;;;;;6.13;2.55;;;;;;;;;;5038561;28;20123;-75
2022/07/27 05:26:02;;;;;;;6.07;2.47;;;;;;;;;;5055268;28;20040;-75
2022/07/27 05:28:28;;;;;;;5.13;2.05;;;;;;;;;;5054156;28;20043;-75
2022/07/27 05:30:55;;;;;;;4.40;2.40;;;;;;;;;;5039843;28;20037;-75
2022/07/27 05:33:21;;;;;;;6.03;2.30;;;;;;;;;;5055722;28;20099;-75
2022/07/27 05:35:47;;;;;;;5.60;2.03;;;;;;;;;;5056001;28;20040;-75
2022/07/27 05:38:13;;;;;;;6.18;2.42;;;;;;;;;;5055530;28;20388;-75
2022/07/27 05:40:40;;;;;;;6.85;2.03;;;;;;;;;;5055180;28;20044;-75
2022/07/27 05:43:06;;;;;;;4.32;2.17;;;;;;;;;;5054931;28;20056;-75
2022/07/27 05:45:32;;;;;;;3.85;2.17;;;;;;;;;;5053001;28;20060;-75
2022/07/27 05:47:58;;;;;;;6.82;2.40;;;;;;;;;;5055894;28;20049;-75
2022/07/27 05:50:24;;;;;;;6.82;2.58;;;;;;;;;;5052869;28;20041;-75
2022/07/27 05:52:51;;;;;;;5.85;2.28;;;;;;;;;;5055441;28;20032;-75
2022/07/27 05:55:17;;;;;;;3.97;2.03;;;;;;;;;;5052511;28;20051;-75
2022/07/27 05:57:43;;;;;;;7.18;2.95;;;;;;;;;;5016996;28;20076;-75
2022/07/27 06:00:10;;;;;;;5.05;2.20;;;;;;;;;;5048859;28;20037;-74
2022/07/27 06:02:36;;;;;;;8.02;2.40;;;;;;;;;;5055141;28;20052;-75
2022/07/27 06:05:02;;;;;;;5.00;2.30;;;;;;;;;;5063554;28;20061;-75
2022/07/27 06:10:13;;;;;;;4.97;2.30;;;;;;;;;;5063950;28;20045;-74
2022/07/27 06:12:40;;;;;;;6.40;2.30;;;;;;;;;;5069685;28;20025;-74
2022/07/27 06:15:09;;;;;;;4.10;2.20;;;;;;;;;;5063665;28;20496;-73
2022/07/27 06:17:35;;;;;;;4.80;2.20;;;;;;;;;;5058569;28;20072;-74
2022/07/27 06:20:02;;;;;;;4.97;2.10;;;;;;;;;;5063746;28;20172;-73
2022/07/27 06:22:28;;;;;;;5.55;2.40;;;;;;;;;;5069484;28;20045;-75
2022/07/27 06:24:54;;;;;;;5.15;2.10;;;;;;;;;;5062636;28;20044;-74
2022/07/27 06:27:21;;;;;;;6.20;2.40;;;;;;;;;;5070575;28;20044;-74
2022/07/27 06:29:47;;;;;;;7.05;2.28;;;;;;;;;;5070260;28;20037;-74
2022/07/27 06:32:13;;;;;;;5.75;2.50;;;;;;;;;;5040494;28;20068;-74
2022/07/27 06:34:39;;;;;;;6.30;2.42;;;;;;;;;;5041338;28;20041;-74
2022/07/27 06:37:05;;;;;;;5.15;2.17;;;;;;;;;;5058669;28;20032;-74
2022/07/27 06:39:31;;;;;;;7.13;2.40;;;;;;;;;;5076852;28;20079;-73
2022/07/27 06:41:57;;;;;;;5.35;2.10;;;;;;;;;;5077983;28;20045;-75
2022/07/27 06:44:23;;;;;;;4.65;2.17;;;;;;;;;;5068269;28;20479;-75
2022/07/27 06:46:49;;;;;;;7.43;2.40;;;;;;;;;;5078043;28;20049;-74
2022/07/27 06:49:15;;;;;;;5.85;2.20;;;;;;;;;;5078069;28;20033;-74
2022/07/27 06:51:41;;;;;;;4.47;2.00;;;;;;;;;;5074815;28;20113;-74
2022/07/27 06:54:07;;;;;;;4.57;2.38;;;;;;;;;;5074567;28;20025;-75
2022/07/27 06:56:33;;;;;;;4.50;2.25;;;;;;;;;;5088219;28;20101;-75
2022/07/27 06:58:59;;;;;;;6.40;2.10;;;;;;;;;;5077165;28;20021;-74
2022/07/27 07:01:25;;;;;;;5.78;2.30;;;;;;;;;;5076674;28;20033;-74
2022/07/27 07:03:51;;;;;;;6.15;2.20;;;;;;;;;;5076361;28;20033;-74
2022/07/27 07:06:17;;;;;;;4.93;2.17;;;;;;;;;;5060357;28;20094;-74
2022/07/27 07:08:43;;;;;;;6.55;2.40;;;;;;;;;;5060488;28;20024;-74
2022/07/27 07:11:13;;;;;;;4.85;1.92;;;;;;;;;;5076568;28;20048;-74
2022/07/27 07:13:39;;;;;;;5.50;1.80;;;;;;;;;;5074468;28;20089;-74
2022/07/27 07:16:05;;;;;;;4.50;1.95;;;;;;;;;;5076874;28;20037;-73
2022/07/27 07:18:31;;;;;;;3.67;1.90;;;;;;;;;;5059498;28;20117;-73
2022/07/27 07:20:57;;;;;;;3.05;1.73;;;;;;;;;;5069458;28;20025;-75
2022/07/27 07:23:23;;;;;;;4.72;2.03;;;;;;;;;;5068924;28;20064;-74
2022/07/27 07:25:50;;;;;;;4.90;2.10;;;;;;;;;;5074786;28;20047;-73
2022/07/27 07:28:16;;;;;;;5.75;2.00;;;;;;;;;;5059425;28;20048;-73
2022/07/27 07:30:43;;;;;;;6.95;2.65;;;;;;;;;;5075001;28;20048;-73
2022/07/27 07:33:09;;;;;;;4.40;1.90;;;;;;;;;;5073574;28;20147;-73
2022/07/27 07:35:35;;;;;;;6.35;2.25;;;;;;;;;;5040152;28;20055;-74
2022/07/27 07:38:01;;;;;;;5.90;2.15;;;;;;;;;;5075280;28;20037;-74
2022/07/27 07:40:27;;;;;;;10.02;2.40;;;;;;;;;;5040028;28;20045;-74
2022/07/27 07:42:58;;;;;;;6.65;2.22;;;;;;;;;;5059379;28;20044;-73
2022/07/27 07:45:25;;;;;;;7.15;1.98;;;;;;;;;;5078547;28;20053;-74
2022/07/27 07:47:51;;;;;;;7.57;2.72;;;;;;;;;;5078638;28;20045;-73
2022/07/27 07:50:18;;;;;;;6.80;2.40;;;;;;;;;;5077162;28;20069;-74
2022/07/27 07:52:44;;;;;;;8.50;2.42;;;;;;;;;;5076775;28;20076;-74
2022/07/27 07:55:11;;;;;;;4.07;2.20;;;;;;;;;;5078375;28;20041;-74
2022/07/27 07:57:37;;;;;;;5.25;2.03;;;;;;;;;;5076260;28;20045;-75
2022/07/27 08:00:05;;;;;;;8.55;2.45;;;;;;;;;;5077065;28;20072;-74
2022/07/27 08:02:31;;;;;;;6.60;2.25;;;;;;;;;;5056109;28;20089;-74
2022/07/27 08:04:57;;;;;;;5.35;2.00;;;;;;;;;;5075117;28;20049;-73
2022/07/27 08:07:23;;;;;;;7.72;2.00;;;;;;;;;;5075967;28;20103;-73
2022/07/27 08:09:49;;;;;;;5.68;2.10;;;;;;;;;;5086233;28;20522;-73
2022/07/27 08:12:15;;;;;;;6.97;2.38;;;;;;;;;;5082322;28;20041;-73
2022/07/27 08:14:41;;;;;;;4.80;2.13;;;;;;;;;;5076225;28;20076;-73
2022/07/27 08:17:07;;;;;;;6.22;2.00;;;;;;;;;;5076748;28;20097;-73
2022/07/27 08:19:33;;;;;;;6.05;2.20;;;;;;;;;;5071958;28;20048;-73
2022/07/27 08:21:59;;;;;;;10.23;2.20;;;;;;;;;;5052172;28;20037;-73
2022/07/27 08:24:25;;;;;;;4.53;2.10;;;;;;;;;;5058619;28;20064;-74
2022/07/27 08:26:51;;;;;;;7.07;2.30;;;;;;;;;;5056011;28;20045;-73
2022/07/27 08:29:17;;;;;;;4.72;2.38;;;;;;;;;;5059991;28;20083;-73
2022/07/27 08:31:43;;;;;;;8.18;2.20;;;;;;;;;;5053448;28;20085;-74
2022/07/27 08:34:09;;;;;;;7.75;2.25;;;;;;;;;;5048557;28;20045;-75
2022/07/27 08:36:35;;;;;;;6.93;2.10;;;;;;;;;;5055190;28;20056;-73
2022/07/27 08:39:07;;;;;;;5.35;2.10;;;;;;;;;;5051842;28;20104;-74
2022/07/27 08:41:35;;;;;;;4.38;1.98;;;;;;;;;;5073349;28;20075;-73
2022/07/27 08:44:02;;;;;;;4.90;1.98;;;;;;;;;;5055471;28;20069;-73
2022/07/27 08:46:30;;;;;;;3.50;2.17;;;;;;;;;;5075064;28;20052;-73
2022/07/27 08:48:56;;;;;;;4.72;2.30;;;;;;;;;;5074375;28;20404;-73
2022/07/27 08:51:23;;;;;;;5.18;2.10;;;;;;;;;;5075205;28;20052;-73
2022/07/27 08:53:50;;;;;;;6.88;2.08;;;;;;;;;;5072360;28;20044;-74
2022/07/27 08:56:16;;;;;;;5.15;2.03;;;;;;;;;;5074225;28;20068;-73
2022/07/27 08:58:43;;;;;;;3.72;1.83;;;;;;;;;;5074201;28;20044;-73
2022/07/27 09:01:09;;;;;;;3.70;1.60;;;;;;;;;;5055369;28;20122;-73
2022/07/27 09:03:35;;;;;;;5.50;1.90;;;;;;;;;;5056195;28;20470;-73
2022/07/27 09:06:02;;;;;;;7.32;2.10;;;;;;;;;;5056808;28;20048;-73
2022/07/27 09:08:30;;;;;;;4.63;1.98;;;;;;;;;;5072329;28;20056;-73
2022/07/27 09:10:58;;;;;;;6.47;1.90;;;;;;;;;;5072135;28;20040;-73
2022/07/27 09:13:27;;;;;;;4.60;1.90;;;;;;;;;;5072153;28;20060;-73
2022/07/27 09:15:58;;;;;;;6.47;2.22;;;;;;;;;;5054364;28;20052;-73
2022/07/27 09:18:25;;;;;;;4.88;1.90;;;;;;;;;;5071377;28;20045;-73
2022/07/27 09:21:07;;;;;;;5.80;2.17;;;;;;;;;;5053354;28;20045;-73
2022/07/27 09:23:34;;;;;;;8.80;2.35;;;;;;;;;;5071650;28;20484;-73
2022/07/27 09:26:14;;;;;;;3.22;1.90;;;;;;;;;;5054884;28;20071;-73
2022/07/27 09:28:40;;;;;;;5.40;1.95;;;;;;;;;;5072757;28;20043;-73
2022/07/27 09:31:07;;;;;;;4.65;1.92;;;;;;;;;;5071904;28;20048;-73
2022/07/27 09:33:53;;;;;;;4.57;1.67;;;;;;;;;;5071776;28;20072;-74
2022/07/27 09:36:22;;;;;;;;;;;;;;;;;;5054113;28;20049;-73
2022/07/27 09:38:53;;;;;;;3.53;1.70;;;;;;;;;;5056609;28;19955;-73
2022/07/27 09:41:22;;;;;;;4.30;1.83;;;;;;;;;;5051407;28;20057;-73
2022/07/27 09:43:55;;;;;;;3.60;1.70;;;;;;;;;;5052471;28;20037;-73
2022/07/27 09:46:33;;;;;;;7.03;1.80;;;;;;;;;;5034874;28;20089;-72
2022/07/27 09:48:59;;;;;;;4.72;1.98;;;;;;;;;;5052216;28;20058;-73
2022/07/27 09:51:25;;;;;;;4.25;1.95;;;;;;;;;;5055509;28;20120;-73
2022/07/27 09:53:52;;;;;;;4.20;1.83;;;;;;;;;;5052795;28;20037;-72
2022/07/27 09:56:24;;;;;;;4.53;1.90;;;;;;;;;;5072987;28;20040;-73
2022/07/27 09:58:52;;;;;;;3.10;1.50;;;;;;;;;;5071797;28;20045;-73
2022/07/27 10:01:39;;;;;;;3.58;1.80;;;;;;;;;;5072017;28;20045;-73
2022/07/27 10:04:06;;;;;;;4.47;1.80;;;;;;;;;;5070729;28;20045;-73
2022/07/27 10:06:32;;;;;;;7.07;1.77;;;;;;;;;;5070495;28;20145;-73
2022/07/27 10:08:59;;;;;;;4.18;2.10;;;;;;;;;;5071360;28;20159;-74
2022/07/27 10:11:25;;;;;;;4.70;1.90;;;;;;;;;;5050263;28;20041;-74
2022/07/27 10:13:52;;;;;;;2.50;1.60;;;;;;;;;;5069075;28;20128;-76
2022/07/27 10:16:20;;;;;;;7.03;1.80;;;;;;;;;;5059299;28;20029;-74
2022/07/27 10:18:59;;;;;;;6.97;1.92;;;;;;;;;;5076671;28;20056;-73
2022/07/27 10:21:26;;;;;;;3.50;1.90;;;;;;;;;;5075974;28;20075;-74
2022/07/27 10:24:15;;;;;;;4.05;2.00;;;;;;;;;;5076103;28;20109;-73
2022/07/27 10:26:42;;;;;;;8.00;1.85;;;;;;;;;;5071719;28;20045;-77
2022/07/27 10:29:14;;;;;;;6.13;1.90;;;;;;;;;;5071728;28;20105;-74
2022/07/27 10:31:57;;;;;;;4.57;1.58;;;;;;;;;;5072780;28;20045;-73
2022/07/27 10:34:32;;;;;;;2.60;1.70;;;;;;;;;;5074283;28;20059;-73
2022/07/27 10:37:06;;;;;;;3.78;1.90;;;;;;;;;;5053797;28;20048;-73
2022/07/27 10:39:34;;;;;;;4.97;1.80;;;;;;;;;;5073184;28;20048;-74
2022/07/27 10:42:19;;;;;;;2.67;1.58;;;;;;;;;;5073174;28;20048;-73
2022/07/27 10:44:55;;;;;;;3.42;1.60;;;;;;;;;;5073197;28;20037;-74
2022/07/27 10:47:29;;;;;;;3.35;1.60;;;;;;;;;;5072785;28;20115;-73
2022/07/27 10:50:14;;;;;;;5.07;1.90;;;;;;;;;;5069180;28;20040;-74
2022/07/27 10:53:03;;;;;;;3.38;1.80;;;;;;;;;;5060101;28;20041;-77
2022/07/27 10:55:30;;;;;;;5.72;1.98;;;;;;;;;;5057088;28;20056;-76
2022/07/27 10:58:17;;;;;;;2.63;1.73;;;;;;;;;;5057661;28;20044;-75
2022/07/27 11:00:49;;;;;;;5.40;1.73;;;;;;;;;;5018369;28;20054;-73
2022/07/27 11:03:22;;;;;;;5.75;1.55;;;;;;;;;;5012400;28;20034;-73
2022/07/27 11:05:55;;;;;;;5.07;1.83;;;;;;;;;;5014700;28;20026;-77
2022/07/27 11:08:27;;;;;;;3.97;1.80;;;;;;;;;;4998591;28;20061;-73
2022/07/27 11:10:53;;;;;;;7.40;2.00;;;;;;;;;;4999209;28;20039;-73
2022/07/27 11:13:20;;;;;;;3.85;2.00;;;;;;;;;;5014738;28;20090;-73
2022/07/27 11:16:00;;;;;;;3.35;1.77;;;;;;;;;;5019780;28;20033;-72
2022/07/27 11:18:30;;;;;;;5.57;1.90;;;;;;;;;;5022582;28;20037;-74
2022/07/27 11:21:16;;;;;;;3.75;2.08;;;;;;;;;;5019954;28;20053;-73
2022/07/27 11:23:42;;;;;;;;;;;;;;;;;;5022399;28;20031;-74
2022/07/27 11:26:09;;;;;;;4.88;1.60;;;;;;;;;;5022197;28;19922;-73
2022/07/27 11:28:35;;;;;;;4.40;1.90;;;;;;;;;;5004319;28;20066;-74
2022/07/27 11:31:02;;;;;;;6.15;1.77;;;;;;;;;;5002580;28;20090;-74
2022/07/27 11:33:28;;;;;;;4.28;1.73;;;;;;;;;;5002844;28;20054;-73
2022/07/27 11:35:59;;;;;;;3.42;1.60;;;;;;;;;;5007773;28;20025;-75
2022/07/27 11:38:25;;;;;;;6.15;1.90;;;;;;;;;;5002705;28;20108;-73
2022/07/27 11:40:52;;;;;;;4.22;1.60;;;;;;;;;;4994556;28;20039;-74
2022/07/27 11:43:32;;;;;;;5.63;2.00;;;;;;;;;;4998471;28;20035;-74
2022/07/27 11:46:10;;;;;;;7.68;1.90;;;;;;;;;;4998720;28;20062;-74
2022/07/27 11:48:36;;;;;;;7.15;2.22;;;;;;;;;;4999564;28;20038;-74
2022/07/27 11:51:02;;;;;;;6.07;2.17;;;;;;;;;;4990023;28;20046;-74
2022/07/27 11:53:28;;;;;;;3.72;1.90;;;;;;;;;;4977735;28;20118;-74
2022/07/27 11:55:54;;;;;;;4.50;1.92;;;;;;;;;;4979078;28;20058;-75
2022/07/27 11:58:20;;;;;;;4.18;1.73;;;;;;;;;;4992141;28;20047;-75
2022/07/27 12:00:46;;;;;;;5.20;2.20;;;;;;;;;;4997666;28;20054;-74
2022/07/27 12:03:19;;;;;;;5.07;1.77;;;;;;;;;;4996860;28;20425;-75
2022/07/27 12:05:50;;;;;;;4.78;1.80;;;;;;;;;;4995942;28;20102;-74
2022/07/27 12:08:16;;;;;;;6.40;1.88;;;;;;;;;;4996323;28;20141;-74
2022/07/27 12:10:56;;;;;;;3.90;1.80;;;;;;;;;;4997341;28;20046;-74
2022/07/27 12:13:23;;;;;;;6.68;2.00;;;;;;;;;;4997453;28;20038;-74
2022/07/27 12:15:56;;;;;;;4.43;1.73;;;;;;;;;;4997584;28;20038;-75
2022/07/27 12:18:22;;;;;;;5.38;2.25;;;;;;;;;;4998034;28;20409;-74
2022/07/27 12:20:50;;;;;;;3.97;1.88;;;;;;;;;;4996179;28;20035;-74
2022/07/27 12:23:16;;;;;;;6.78;2.00;;;;;;;;;;4995976;28;20071;-74
2022/07/27 12:25:47;;;;;;;7.18;1.98;;;;;;;;;;4998097;28;20042;-74
2022/07/27 12:28:16;;;;;;;5.78;1.90;;;;;;;;;;4996740;28;20053;-74
2022/07/27 12:30:46;;;;;;;5.40;2.22;;;;;;;;;;4997964;28;20050;-75
2022/07/27 12:33:29;;;;;;;4.47;2.00;;;;;;;;;;4998110;28;20084;-74
2022/07/27 12:35:55;;;;;;;4.00;2.00;;;;;;;;;;4996761;28;20075;-74
2022/07/27 12:38:21;;;;;;;6.72;2.30;;;;;;;;;;4993435;28;20442;-75
2022/07/27 12:40:49;;;;;;;4.65;2.50;;;;;;;;;;4979723;28;20140;-74
2022/07/27 12:43:16;;;;;;;5.63;2.20;;;;;;;;;;4998035;28;20440;-74
2022/07/27 12:45:46;;;;;;;4.60;1.90;;;;;;;;;;4997085;28;20066;-74
2022/07/27 12:48:14;;;;;;;5.30;2.00;;;;;;;;;;4995645;28;20058;-73
2022/07/27 12:50:41;;;;;;;3.40;1.70;;;;;;;;;;4997852;28;20046;-74
2022/07/27 12:53:08;;;;;;;4.57;2.08;;;;;;;;;;4996520;28;20049;-79
2022/07/27 12:55:34;;;;;;;4.30;1.98;;;;;;;;;;4992779;28;20047;-74
2022/07/27 12:58:00;;;;;;;5.60;1.90;;;;;;;;;;4996368;28;20034;-74
2022/07/27 13:00:29;;;;;;;6.72;2.17;;;;;;;;;;4995102;28;20053;-73
2022/07/27 13:02:55;;;;;;;4.57;1.83;;;;;;;;;;4996784;28;20058;-75
2022/07/27 13:05:21;;;;;;;4.40;1.85;;;;;;;;;;4994845;28;20547;-74
2022/07/27 13:07:47;;;;;;;4.07;1.70;;;;;;;;;;4996393;28;20050;-75
2022/07/27 13:10:17;;;;;;;3.90;1.70;;;;;;;;;;4995504;28;20056;-74
2022/07/27 13:12:43;;;;;;;4.10;1.92;;;;;;;;;;4996597;28;20050;-73
2022/07/27 13:15:10;;;;;;;5.40;1.92;;;;;;;;;;4995749;28;20042;-74
2022/07/27 13:17:36;;;;;;;4.57;1.70;;;;;;;;;;4989793;28;20073;-75
2022/07/27 13:20:03;;;;;;;2.45;1.70;;;;;;;;;;4994871;28;20490;-74
2022/07/27 13:22:29;;;;;;;3.97;2.00;;;;;;;;;;4995434;28;20089;-75
2022/07/27 13:24:56;;;;;;;5.55;1.70;;;;;;;;;;4996167;28;20125;-73
2022/07/27 13:27:22;;;;;;;5.38;2.08;;;;;;;;;;4994226;28;20559;-74
2022/07/27 13:29:48;;;;;;;5.07;2.08;;;;;;;;;;4995222;28;20042;-73
2022/07/27 13:32:14;;;;;;;4.90;2.20;;;;;;;;;;4995643;28;20041;-75
2022/07/27 13:34:40;;;;;;;5.10;1.95;;;;;;;;;;4994626;28;20053;-76
2022/07/27 13:37:06;;;;;;;3.70;1.95;;;;;;;;;;4995669;28;20114;-74
2022/07/27 13:39:32;;;;;;;5.07;2.17;;;;;;;;;;4993503;28;20057;-73
2022/07/27 13:41:59;;;;;;;6.65;2.20;;;;;;;;;;4995423;28;20042;-73
2022/07/27 13:44:25;;;;;;;5.20;2.00;;;;;;;;;;4992578;28;20042;-74
2022/07/27 13:46:51;;;;;;;5.25;2.30;;;;;;;;;;4999305;28;20453;-73
2022/07/27 13:49:17;;;;;;;4.57;1.75;;;;;;;;;;4998596;28;20089;-74
2022/07/27 13:51:44;;;;;;;4.00;1.80;;;;;;;;;;4997608;28;20129;-74
2022/07/27 13:54:11;;;;;;;6.85;2.00;;;;;;;;;;4979583;28;20574;-73
2022/07/27 13:56:37;;;;;;;5.90;1.88;;;;;;;;;;4979381;28;20100;-74
2022/07/27 13:59:03;;;;;;;4.90;1.88;;;;;;;;;;4993983;28;20058;-74
2022/07/27 14:01:30;;;;;;;4.07;2.05;;;;;;;;;;4995349;28;20104;-74
2022/07/27 14:03:56;;;;;;;4.35;1.80;;;;;;;;;;4995810;28;20173;-74
2022/07/27 14:06:23;;;;;;;5.75;2.00;;;;;;;;;;4999108;28;20513;-75
2022/07/27 14:08:49;;;;;;;5.10;2.10;;;;;;;;;;4995022;28;20112;-74
2022/07/27 14:11:15;;;;;;;5.03;2.55;;;;;;;;;;4993622;28;20472;-74
2022/07/27 14:13:42;;;;;;;4.65;2.00;;;;;;;;;;4994539;28;20125;-73
2022/07/27 14:16:08;;;;;;;4.32;1.88;;;;;;;;;;4994790;28;20383;-73
2022/07/27 14:18:35;;;;;;;5.82;1.90;;;;;;;;;;4993887;28;20061;-74
2022/07/27 14:21:02;;;;;;;10.07;2.25;;;;;;;;;;4994489;28;20049;-74
2022/07/27 14:23:28;;;;;;;2.95;1.90;;;;;;;;;;4994745;28;20042;-73
2022/07/27 14:25:55;;;;;;;6.28;1.92;;;;;;;;;;4994021;28;20046;-73
2022/07/27 14:28:21;;;;;;;4.18;1.85;;;;;;;;;;4993909;28;20046;-74
2022/07/27 14:30:48;;;;;;;3.97;1.75;;;;;;;;;;4994789;28;20412;-73
2022/07/27 14:33:14;;;;;;;5.25;2.30;;;;;;;;;;4994353;28;20042;-74
2022/07/27 14:35:40;;;;;;;3.88;1.90;;;;;;;;;;4994341;28;20039;-73
2022/07/27 14:38:07;;;;;;;4.47;2.00;;;;;;;;;;4994439;28;20049;-74
2022/07/27 14:40:33;;;;;;;3.20;1.80;;;;;;;;;;4993063;28;20482;-74
2022/07/27 14:42:59;;;;;;;4.53;1.90;;;;;;;;;;4994099;28;20050;-74
2022/07/27 14:45:26;;;;;;;4.20;1.90;;;;;;;;;;4992786;28;20485;-73
2022/07/27 14:47:52;;;;;;;7.32;2.15;;;;;;;;;;4994544;28;20054;-74
2022/07/27 14:50:18;;;;;;;4.10;1.63;;;;;;;;;;4991702;28;20034;-85
2022/07/27 14:52:44;;;;;;;3.15;1.80;;;;;;;;;;4994039;28;20153;-74